Time;durP1;ratioP1;P1;durP2;ratioP2;P2;SDS_P1;SDS_P2;PMS_P1;PMS_P2;Temp;Humidity;BMP_temperature;BMP_pressure;BME280_temperature;BME280_humidity;BME280_pressure;Samples;Min_cycle;Max_cycle;Signal;HPM_P1;HPM_P2
2023/09/29 17:36:52;;;;;;;;;;;16.90;67.20;;;;;;5099718;27;2118680;-91
2023/09/29 17:39:17;;;;;;;;;;;16.60;68.20;;;;;;5155658;27;20005;-90
2023/09/29 17:41:43;;;;;;;;;;;16.50;69.00;;;;;;5155465;27;19913;-92
2023/09/29 17:44:13;;;;;;;;;;;16.50;69.60;;;;;;5155726;27;19907;-91
2023/09/29 17:46:39;;;;;;;;;;;16.60;70.10;;;;;;5155449;27;19907;-90
2023/09/29 17:49:05;;;;;;;;;;;16.60;70.50;;;;;;5155368;27;19960;-91
2023/09/29 17:51:31;;;;;;;;;;;16.60;70.80;;;;;;5155291;27;19930;-90
2023/09/29 17:53:56;;;;;;;;;;;16.70;71.10;;;;;;5174367;27;20277;-92
2023/09/29 17:56:22;;;;;;;;;;;16.70;71.20;;;;;;5155432;27;19918;-90
2023/09/29 17:58:47;;;;;;;;;;;16.70;71.40;;;;;;5155415;27;19907;-91
2023/09/29 18:01:13;;;;;;;;;;;16.70;71.50;;;;;;5173793;27;19907;-92
2023/09/29 18:03:39;;;;;;;;;;;16.80;71.70;;;;;;5155055;27;20015;-91
2023/09/29 18:06:05;;;;;;;;;;;16.80;71.80;;;;;;5154976;27;19911;-90
2023/09/29 18:08:32;;;;;;;;;;;16.80;71.90;;;;;;5154949;27;19929;-91
2023/09/29 18:11:00;;;;;;;;;;;16.80;72.10;;;;;;5154952;27;19911;-92
2023/09/29 18:13:27;;;;;;;;;;;16.80;72.20;;;;;;5154796;27;19913;-91
2023/09/29 18:15:52;;;;;;;;;;;16.80;72.30;;;;;;5154802;27;19961;-90
2023/09/29 18:18:18;;;;;;;;;;;16.80;72.40;;;;;;5135761;27;19907;-91
2023/09/29 18:20:44;;;;;;;;;;;16.80;72.40;;;;;;5152559;27;19907;-91
2023/09/29 18:23:09;;;;;;;;;;;16.70;72.50;;;;;;5133953;27;19930;-94
2023/09/29 18:25:35;;;;;;;;;;;16.70;72.60;;;;;;5133886;27;20003;-93
2023/09/29 18:28:00;;;;;;;;;;;16.70;72.80;;;;;;5133912;27;19907;-95
2023/09/29 18:30:27;;;;;;;;;;;16.70;72.90;;;;;;5133743;27;20048;-90
2023/09/29 18:32:53;;;;;;;;;;;16.70;73.10;;;;;;5152236;27;19908;-93
2023/09/29 18:35:18;;;;;;;;;;;16.60;73.10;;;;;;5152130;27;19919;-92
2023/09/29 18:39:26;;;;;;;;;;;16.60;72.70;;;;;;5113020;27;20247;-90
2023/09/29 18:41:52;;;;;;;;;;;16.60;73.40;;;;;;5112102;28;19999;-93
2023/09/29 18:44:18;;;;;;;;;;;16.50;73.50;;;;;;5110766;28;19912;-94
2023/09/29 18:46:44;;;;;;;;;;;16.50;73.70;;;;;;5139713;27;19927;-93
2023/09/29 18:49:09;;;;;;;;;;;16.50;73.70;;;;;;5090420;28;19908;-94
2023/09/29 18:51:34;;;;;;;;;;;16.50;73.90;;;;;;5090270;28;20018;-93
2023/09/29 18:54:00;;;;;;;;;;;16.40;74.00;;;;;;5090256;28;20431;-92
2023/09/29 18:56:26;;;;;;;;;;;16.40;74.10;;;;;;5090241;28;19952;-94
2023/09/29 18:58:51;;;;;;;;;;;16.30;74.10;;;;;;5090182;28;19912;-95
2023/09/29 19:01:22;;;;;;;;;;;16.30;74.20;;;;;;5090771;28;20299;-93
2023/09/29 19:03:49;;;;;;;;;;;16.30;74.30;;;;;;5089922;28;19912;-94
2023/09/29 19:06:14;;;;;;;;;;;16.30;74.30;;;;;;5089851;28;19915;-92
2023/09/29 19:08:40;;;;;;;;;;;16.30;74.50;;;;;;5089843;28;20276;-94
2023/09/29 19:11:16;;;;;;;;;;;16.20;74.60;;;;;;5089944;28;19978;-93
2023/09/29 19:13:41;;;;;;;;;;;16.20;74.80;;;;;;5088491;28;19908;-93
2023/09/29 19:16:07;;;;;;;;;;;16.20;74.90;;;;;;5094173;28;20261;-92
